Local

EHAM

EHAM 191255Z 25006KT 190V300 9999 FEW026 23/15 Q1013 NOSIG

EHAM

TAF TAF EHAM 191118Z 1912/2018 21008KT 9999 SCT030 BECMG 1912/1915 27011KT BECMG 1916/1919 VRB03KT BKN045 BECMG 1922/2001 16008KT BECMG 2007/2010 20012KT TEMPO 2009/2015 6000 SHRA RA FEW015 BKN030 FEW040CB PROB40 TEMPO 2010/2014 22017G27KT 4500 TSRA SCT012 SCT022CB BKN025 BECMG 2012/2015 24015KT

METAR Cross-country

EHKD

EHKD 191255Z AUTO 24011KT 210V270 9999 OVC240 22/15 Q1013 BLU 22011KT 9999 FEW032 BKN200

EHGG

EHGG 191255Z AUTO 27004KT 190V360 9999 NSC 23/10 Q1013 NOSIG

EDLW

EHLW 191255Z AUTO 19006KT 150V250 9999 FEW047/// SCT052/// BKN057/// 23/12 Q1013 BLU RMK TS INFO NOT AVBL

EDDW

EDDW 191250Z 33008KT 270V010 CAVOK 25/09 Q1013 NOSIG

EHRD

EHRD 191255Z AUTO 25011KT 220V290 9999 SCT029 BKN033 23/15 Q1013 BECMG 26010KT

EHDL

EHDL 191255Z AUTO 26005KT 150V290 9999 OVC150 23/10 Q1014 BLU

EHEH

EHEH 191255Z AUTO 22008KT 180V270 9999 OVC120 24/12 Q1014 BLU 23006KT 9999 SCT040

EBAW

EBAW 191250Z 24008KT 190V280 9999 SCT045 24/12 Q1014 NOSIG

EHBK

EHBK 191255Z AUTO 23008KT 180V320 9999 BKN044 23/12 Q1014 NOSIG

TAF Cross-country

EHKD

TAF EHKD 190839Z 1909/1921 22007KT 9999 SCT020 BECMG 1917/1920 17007KT

EHGG

TAF EHGG 191114Z 1912/2018 24004KT CAVOK BECMG 2008/2011 21010KT TEMPO 2010/2018 24012G22KT 6000 SHRA SCT030CB PROB40 TEMPO 2012/2016 24025G35KT 2000 TSRAGR SCT010 BKN020CB

EDDW

TAF TAF EDDW 191100Z 1912/2012 29008KT CAVOK BECMG 1917/1919 10004KT BECMG 2006/2008 16008KT BECMG 2009/2011 22011KT TEMPO 2011/2012 22015G25KT

EHRD

TAF EHRD 191118Z 1912/2018 21008KT 9999 SCT030 BECMG 1912/1915 27011KT BECMG 1916/1919 VRB03KT BKN045 BECMG 1922/2001 16008KT BECMG 2007/2010 20012KT TEMPO 2009/2015 6000 SHRA RA FEW015 BKN030 FEW040CB PROB40 TEMPO 2010/2014 22017G27KT 4500 TSRA SCT012 SCT022CB BKN025 BECMG 2012/2015 24015KT

EHEH

TAF TAF EHEH 191028Z 1912/2018 22006KT 9999 SCT030 TEMPO 1918/1921 15005KT BECMG 2009/2012 22010KT PROB40 TEMPO 2010/2017 24012G25KT 4000 SHRA TSRA SCT030CB BKN060 PROB0 TEMPO 2012/2016 24015G30KT 2000 TSRAGR SCT012 SCT030CB BKN060

EHBK

TAF EHBK 191114Z 1912/2018 24007KT 9999 SCT020 TEMPO 2010/2018 6000 SHRA SCT040CB PROB40 TEMPO 2014/2018 25020G30KT 4000 TSRA SCT040CB

Weerbulletin KNMI

Gebruik deze link voor hoogtewinden en omschrijving weersituatie voor de kleine luchtvaart.

Weerminima

Gebruik deze link voor onze weerminima bij lokale- en overland (Dual en Solo) lesvluchten.

Meest voorkomende afkortingen

code vb uitleg
ddtttt 211525 De dag van de maand met de tijd in UTC
zicht 4000 Zicht op 10 meter hoogte 4000 meter
FG Mist (zicht tussen 0-1000 meter)
BR Nevel (zicht tussen 1000-5000 meter)
DZ Motregen
OVC OVC020 Overcast bewolking (8/8 bedekking) 2000 ft
BKN BKN015 Broken bewolking (5/8-7/8 bedekking) 1500 ft
SCT SCT005 Scattered bewolking(3/8-4/8 bedekking) 500 ft
FEW FEW003 Few bewolking (1/8-2/8 bedekking) 300 ft
CAVOK Clouds And Visibility OKay Zicht meer dan 10 km, Geen CB/TCU’s in de buurt, wolkenbasis hoger dan 5000 ft en geen significant weer.
T/D 08/05 Temperatuur/Dauwpunt
QNH QNH1001 Luchtdruk op zeeniveau van 1001 hPa
RA -RA Matige Regen (+ = zwaar en – = matig)

Verwachte regenval vandaag

6 UTC

12 UTC

18 UTC

Disclaimer: Deze tool helpt bij een veilige vluchtuitvoering en de Pilot In Command blijft verantwoordelijk voor gebruik van de originele en meest actuele bronnen. Refresh deze pagina voor het meest actuele weer.